Terminal Aerodrome Forecast
Issued by NWS

Current Version | Previous Version | Text Only | Print | Product List | Glossary Off
Versions: 1 2 3 4 5 6 7 8 9 10 11 12 13 14 15 16 17

000
FTUS41 KRNK 241121
TAFLWB
TAF
KLWB 241121Z 2412/2512 VRB03KT 1/4SM FG BKN001
     FM241330 VRB03KT P6SM BKN250
     FM241900 20005KT P6SM SCT050
     FM250000 00000KT P6SM SCT120
     FM250900 00000KT 1/4SM FG OVC001
      AMD NOT SKED=

USA.gov is the U.S. government's official web portal to all federal, state and local government web resources and services.